sensor_id;sensor_type;location;lat;lon;timestamp;temperature;humidity
22098;DHT22;11215;51.938;8.464;2023-04-24T00:00:56;15.60;58.00
22098;DHT22;11215;51.938;8.464;2023-04-24T00:03:23;15.60;57.90
22098;DHT22;11215;51.938;8.464;2023-04-24T00:05:49;15.60;57.80
22098;DHT22;11215;51.938;8.464;2023-04-24T00:08:15;15.60;57.80
22098;DHT22;11215;51.938;8.464;2023-04-24T00:10:41;15.60;58.00
22098;DHT22;11215;51.938;8.464;2023-04-24T00:13:06;15.60;58.10
22098;DHT22;11215;51.938;8.464;2023-04-24T00:15:32;15.50;58.10
22098;DHT22;11215;51.938;8.464;2023-04-24T00:17:58;15.60;58.10
22098;DHT22;11215;51.938;8.464;2023-04-24T00:20:24;15.50;57.90
22098;DHT22;11215;51.938;8.464;2023-04-24T00:22:49;15.60;58.70
22098;DHT22;11215;51.938;8.464;2023-04-24T00:25:15;15.50;58.10
22098;DHT22;11215;51.938;8.464;2023-04-24T00:27:40;15.50;58.20
22098;DHT22;11215;51.938;8.464;2023-04-24T00:30:07;15.50;58.10
22098;DHT22;11215;51.938;8.464;2023-04-24T00:32:32;15.50;58.40
22098;DHT22;11215;51.938;8.464;2023-04-24T00:34:58;15.50;58.30
22098;DHT22;11215;51.938;8.464;2023-04-24T00:37:23;15.50;58.20
22098;DHT22;11215;51.938;8.464;2023-04-24T00:39:49;15.50;58.10
22098;DHT22;11215;51.938;8.464;2023-04-24T00:42:15;15.50;58.30
22098;DHT22;11215;51.938;8.464;2023-04-24T00:44:40;15.50;58.20
22098;DHT22;11215;51.938;8.464;2023-04-24T00:47:07;15.50;58.20
22098;DHT22;11215;51.938;8.464;2023-04-24T00:49:33;15.50;58.30
22098;DHT22;11215;51.938;8.464;2023-04-24T00:51:58;15.40;58.30
22098;DHT22;11215;51.938;8.464;2023-04-24T00:54:24;15.40;58.30
22098;DHT22;11215;51.938;8.464;2023-04-24T00:56:50;15.40;58.40
22098;DHT22;11215;51.938;8.464;2023-04-24T00:59:17;15.40;58.40
22098;DHT22;11215;51.938;8.464;2023-04-24T01:01:43;15.40;58.40
22098;DHT22;11215;51.938;8.464;2023-04-24T01:04:11;15.40;58.40
22098;DHT22;11215;51.938;8.464;2023-04-24T01:06:39;15.40;58.50
22098;DHT22;11215;51.938;8.464;2023-04-24T01:09:05;15.40;58.60
22098;DHT22;11215;51.938;8.464;2023-04-24T01:11:31;15.40;59.20
22098;DHT22;11215;51.938;8.464;2023-04-24T01:13:57;15.40;58.70
22098;DHT22;11215;51.938;8.464;2023-04-24T01:16:22;15.40;58.90
22098;DHT22;11215;51.938;8.464;2023-04-24T01:18:48;15.40;59.00
22098;DHT22;11215;51.938;8.464;2023-04-24T01:21:15;15.40;59.00
22098;DHT22;11215;51.938;8.464;2023-04-24T01:23:47;15.40;58.90
22098;DHT22;11215;51.938;8.464;2023-04-24T01:26:16;15.40;58.80
22098;DHT22;11215;51.938;8.464;2023-04-24T01:28:42;15.40;58.90
22098;DHT22;11215;51.938;8.464;2023-04-24T01:31:08;15.40;58.70
22098;DHT22;11215;51.938;8.464;2023-04-24T01:33:34;15.50;58.70
22098;DHT22;11215;51.938;8.464;2023-04-24T01:36:00;15.40;58.80
22098;DHT22;11215;51.938;8.464;2023-04-24T01:38:26;15.40;58.70
22098;DHT22;11215;51.938;8.464;2023-04-24T01:40:52;15.40;58.60
22098;DHT22;11215;51.938;8.464;2023-04-24T01:43:18;15.40;58.50
22098;DHT22;11215;51.938;8.464;2023-04-24T01:45:44;15.40;58.50
22098;DHT22;11215;51.938;8.464;2023-04-24T01:48:11;15.40;58.50
22098;DHT22;11215;51.938;8.464;2023-04-24T01:50:38;15.30;58.50
22098;DHT22;11215;51.938;8.464;2023-04-24T01:53:04;15.30;58.50
22098;DHT22;11215;51.938;8.464;2023-04-24T01:55:30;15.30;58.40
22098;DHT22;11215;51.938;8.464;2023-04-24T01:57:56;15.20;58.30
22098;DHT22;11215;51.938;8.464;2023-04-24T02:00:22;15.20;58.40
22098;DHT22;11215;51.938;8.464;2023-04-24T02:02:48;15.20;58.30
22098;DHT22;11215;51.938;8.464;2023-04-24T02:05:13;15.10;58.30
22098;DHT22;11215;51.938;8.464;2023-04-24T02:07:39;15.10;58.40
22098;DHT22;11215;51.938;8.464;2023-04-24T02:10:05;15.00;58.50
22098;DHT22;11215;51.938;8.464;2023-04-24T02:12:31;15.00;58.60
22098;DHT22;11215;51.938;8.464;2023-04-24T02:14:57;15.00;58.60
22098;DHT22;11215;51.938;8.464;2023-04-24T02:17:23;15.00;58.60
22098;DHT22;11215;51.938;8.464;2023-04-24T02:19:48;14.90;58.50
22098;DHT22;11215;51.938;8.464;2023-04-24T02:22:14;14.90;58.60
22098;DHT22;11215;51.938;8.464;2023-04-24T02:24:40;14.90;58.70
22098;DHT22;11215;51.938;8.464;2023-04-24T02:27:06;14.90;58.80
22098;DHT22;11215;51.938;8.464;2023-04-24T02:29:32;14.80;58.80
22098;DHT22;11215;51.938;8.464;2023-04-24T02:31:57;14.80;58.80
22098;DHT22;11215;51.938;8.464;2023-04-24T02:34:23;14.80;58.90
22098;DHT22;11215;51.938;8.464;2023-04-24T02:36:49;14.80;58.80
22098;DHT22;11215;51.938;8.464;2023-04-24T02:39:15;14.80;58.90
22098;DHT22;11215;51.938;8.464;2023-04-24T02:41:42;14.80;58.90
22098;DHT22;11215;51.938;8.464;2023-04-24T02:44:08;14.80;59.00
22098;DHT22;11215;51.938;8.464;2023-04-24T02:46:33;14.70;58.90
22098;DHT22;11215;51.938;8.464;2023-04-24T02:48:59;14.70;59.00
22098;DHT22;11215;51.938;8.464;2023-04-24T02:51:25;14.70;59.00
22098;DHT22;11215;51.938;8.464;2023-04-24T02:53:50;14.70;59.00
22098;DHT22;11215;51.938;8.464;2023-04-24T02:56:16;14.70;59.20
22098;DHT22;11215;51.938;8.464;2023-04-24T02:58:41;14.70;59.30
22098;DHT22;11215;51.938;8.464;2023-04-24T03:01:08;14.60;59.40
22098;DHT22;11215;51.938;8.464;2023-04-24T03:03:35;14.60;59.60
22098;DHT22;11215;51.938;8.464;2023-04-24T03:06:01;14.60;59.70
22098;DHT22;11215;51.938;8.464;2023-04-24T03:08:27;14.60;59.70
22098;DHT22;11215;51.938;8.464;2023-04-24T03:10:53;14.60;59.80
22098;DHT22;11215;51.938;8.464;2023-04-24T03:13:18;14.70;59.90
22098;DHT22;11215;51.938;8.464;2023-04-24T03:15:44;14.70;60.00
22098;DHT22;11215;51.938;8.464;2023-04-24T03:18:10;14.70;60.00
22098;DHT22;11215;51.938;8.464;2023-04-24T03:20:36;14.70;59.80
22098;DHT22;11215;51.938;8.464;2023-04-24T03:23:03;14.70;59.90
22098;DHT22;11215;51.938;8.464;2023-04-24T03:25:28;14.70;59.90
22098;DHT22;11215;51.938;8.464;2023-04-24T03:27:54;14.70;59.90
22098;DHT22;11215;51.938;8.464;2023-04-24T03:30:22;14.70;59.80
22098;DHT22;11215;51.938;8.464;2023-04-24T03:32:47;14.70;59.80
22098;DHT22;11215;51.938;8.464;2023-04-24T03:35:13;14.70;59.80
22098;DHT22;11215;51.938;8.464;2023-04-24T03:37:39;14.70;59.80
22098;DHT22;11215;51.938;8.464;2023-04-24T03:40:05;14.70;59.90
22098;DHT22;11215;51.938;8.464;2023-04-24T03:42:31;14.70;60.00
22098;DHT22;11215;51.938;8.464;2023-04-24T03:44:57;14.70;60.10
22098;DHT22;11215;51.938;8.464;2023-04-24T03:47:22;14.70;60.00
22098;DHT22;11215;51.938;8.464;2023-04-24T03:49:48;14.70;59.90
22098;DHT22;11215;51.938;8.464;2023-04-24T03:52:13;14.70;59.90
22098;DHT22;11215;51.938;8.464;2023-04-24T03:54:39;14.70;59.90
22098;DHT22;11215;51.938;8.464;2023-04-24T03:57:05;14.70;59.90
22098;DHT22;11215;51.938;8.464;2023-04-24T03:59:31;14.70;59.90
22098;DHT22;11215;51.938;8.464;2023-04-24T04:01:56;14.70;59.90
22098;DHT22;11215;51.938;8.464;2023-04-24T04:04:22;14.70;60.00
22098;DHT22;11215;51.938;8.464;2023-04-24T04:06:50;14.70;60.00
22098;DHT22;11215;51.938;8.464;2023-04-24T04:09:16;14.70;60.00
22098;DHT22;11215;51.938;8.464;2023-04-24T04:11:42;14.70;59.90
22098;DHT22;11215;51.938;8.464;2023-04-24T04:14:07;14.70;60.10
22098;DHT22;11215;51.938;8.464;2023-04-24T04:16:33;14.70;60.10
22098;DHT22;11215;51.938;8.464;2023-04-24T04:18:59;14.70;60.20
22098;DHT22;11215;51.938;8.464;2023-04-24T04:21:24;14.70;60.10
22098;DHT22;11215;51.938;8.464;2023-04-24T04:23:51;14.70;60.10
22098;DHT22;11215;51.938;8.464;2023-04-24T04:26:17;14.70;59.90
22098;DHT22;11215;51.938;8.464;2023-04-24T04:28:47;14.70;60.00
22098;DHT22;11215;51.938;8.464;2023-04-24T04:31:14;14.70;60.00
22098;DHT22;11215;51.938;8.464;2023-04-24T04:33:39;14.70;59.90
22098;DHT22;11215;51.938;8.464;2023-04-24T04:36:05;14.70;59.90
22098;DHT22;11215;51.938;8.464;2023-04-24T04:38:31;14.70;60.00
22098;DHT22;11215;51.938;8.464;2023-04-24T04:40:57;14.70;60.00
22098;DHT22;11215;51.938;8.464;2023-04-24T04:43:32;14.70;60.00
22098;DHT22;11215;51.938;8.464;2023-04-24T04:45:58;14.70;60.10
22098;DHT22;11215;51.938;8.464;2023-04-24T04:48:24;14.70;59.90
22098;DHT22;11215;51.938;8.464;2023-04-24T04:50:49;14.60;59.00
22098;DHT22;11215;51.938;8.464;2023-04-24T04:53:18;14.70;58.60
22098;DHT22;11215;51.938;8.464;2023-04-24T04:58:15;14.50;58.30
22098;DHT22;11215;51.938;8.464;2023-04-24T05:00:40;14.50;58.50
22098;DHT22;11215;51.938;8.464;2023-04-24T05:03:06;14.40;58.40
22098;DHT22;11215;51.938;8.464;2023-04-24T05:05:32;14.30;58.50
22098;DHT22;11215;51.938;8.464;2023-04-24T05:07:58;14.30;58.60
22098;DHT22;11215;51.938;8.464;2023-04-24T05:10:24;14.20;58.70
22098;DHT22;11215;51.938;8.464;2023-04-24T05:12:50;14.20;58.90
22098;DHT22;11215;51.938;8.464;2023-04-24T05:15:15;14.10;59.00
22098;DHT22;11215;51.938;8.464;2023-04-24T05:17:41;14.10;59.00
22098;DHT22;11215;51.938;8.464;2023-04-24T05:20:07;14.10;59.10
22098;DHT22;11215;51.938;8.464;2023-04-24T05:22:33;14.10;59.20
22098;DHT22;11215;51.938;8.464;2023-04-24T05:24:59;14.10;59.30
22098;DHT22;11215;51.938;8.464;2023-04-24T05:27:24;14.10;59.30
22098;DHT22;11215;51.938;8.464;2023-04-24T05:29:50;14.10;59.30
22098;DHT22;11215;51.938;8.464;2023-04-24T05:32:16;14.10;59.20
22098;DHT22;11215;51.938;8.464;2023-04-24T05:34:42;14.10;59.30
22098;DHT22;11215;51.938;8.464;2023-04-24T05:37:07;14.10;59.30
22098;DHT22;11215;51.938;8.464;2023-04-24T05:39:35;14.10;59.20
22098;DHT22;11215;51.938;8.464;2023-04-24T05:42:01;14.10;59.30
22098;DHT22;11215;51.938;8.464;2023-04-24T05:44:27;14.10;59.50
22098;DHT22;11215;51.938;8.464;2023-04-24T05:46:53;14.10;59.50
22098;DHT22;11215;51.938;8.464;2023-04-24T05:49:23;14.10;59.50
22098;DHT22;11215;51.938;8.464;2023-04-24T05:51:49;14.10;59.50
22098;DHT22;11215;51.938;8.464;2023-04-24T05:54:14;14.10;59.50
22098;DHT22;11215;51.938;8.464;2023-04-24T05:56:40;14.10;59.60
22098;DHT22;11215;51.938;8.464;2023-04-24T05:59:06;14.10;60.50
22098;DHT22;11215;51.938;8.464;2023-04-24T06:01:33;14.10;59.70
22098;DHT22;11215;51.938;8.464;2023-04-24T06:03:58;14.20;59.80
22098;DHT22;11215;51.938;8.464;2023-04-24T06:06:24;14.20;59.70
22098;DHT22;11215;51.938;8.464;2023-04-24T06:08:54;14.20;59.50
22098;DHT22;11215;51.938;8.464;2023-04-24T06:11:19;14.20;59.50
22098;DHT22;11215;51.938;8.464;2023-04-24T06:13:45;14.20;59.60
22098;DHT22;11215;51.938;8.464;2023-04-24T06:16:11;14.20;59.60
22098;DHT22;11215;51.938;8.464;2023-04-24T06:18:36;14.20;59.50
22098;DHT22;11215;51.938;8.464;2023-04-24T06:21:03;14.20;59.50
22098;DHT22;11215;51.938;8.464;2023-04-24T06:23:28;14.30;59.50
22098;DHT22;11215;51.938;8.464;2023-04-24T06:25:54;14.20;59.50
22098;DHT22;11215;51.938;8.464;2023-04-24T06:28:20;14.30;59.60
22098;DHT22;11215;51.938;8.464;2023-04-24T06:30:46;14.20;59.60
22098;DHT22;11215;51.938;8.464;2023-04-24T06:33:11;14.30;59.60
22098;DHT22;11215;51.938;8.464;2023-04-24T06:35:37;14.20;59.50
22098;DHT22;11215;51.938;8.464;2023-04-24T06:38:03;14.30;59.60
22098;DHT22;11215;51.938;8.464;2023-04-24T06:40:29;14.30;59.60
22098;DHT22;11215;51.938;8.464;2023-04-24T06:42:55;14.30;59.50
22098;DHT22;11215;51.938;8.464;2023-04-24T06:45:21;14.30;59.30
22098;DHT22;11215;51.938;8.464;2023-04-24T06:47:46;14.30;59.30
22098;DHT22;11215;51.938;8.464;2023-04-24T06:50:12;14.30;59.30
22098;DHT22;11215;51.938;8.464;2023-04-24T06:52:38;14.30;59.30
22098;DHT22;11215;51.938;8.464;2023-04-24T06:55:04;14.30;59.30
22098;DHT22;11215;51.938;8.464;2023-04-24T06:57:30;14.30;59.30
22098;DHT22;11215;51.938;8.464;2023-04-24T06:59:56;14.30;59.50
22098;DHT22;11215;51.938;8.464;2023-04-24T07:02:22;14.30;59.50
22098;DHT22;11215;51.938;8.464;2023-04-24T07:04:48;14.30;59.30
22098;DHT22;11215;51.938;8.464;2023-04-24T07:07:14;14.40;59.30
22098;DHT22;11215;51.938;8.464;2023-04-24T07:09:40;14.30;59.10
22098;DHT22;11215;51.938;8.464;2023-04-24T07:12:09;14.40;59.10
22098;DHT22;11215;51.938;8.464;2023-04-24T07:14:38;14.40;59.10
22098;DHT22;11215;51.938;8.464;2023-04-24T07:17:05;14.40;59.10
22098;DHT22;11215;51.938;8.464;2023-04-24T07:19:32;14.40;59.10
22098;DHT22;11215;51.938;8.464;2023-04-24T07:21:58;14.40;59.10
22098;DHT22;11215;51.938;8.464;2023-04-24T07:24:27;14.40;59.10
22098;DHT22;11215;51.938;8.464;2023-04-24T07:26:53;14.40;59.00
22098;DHT22;11215;51.938;8.464;2023-04-24T07:29:19;14.40;58.90
22098;DHT22;11215;51.938;8.464;2023-04-24T07:31:46;14.40;58.80
22098;DHT22;11215;51.938;8.464;2023-04-24T07:34:12;14.40;58.80
22098;DHT22;11215;51.938;8.464;2023-04-24T07:36:37;14.40;58.80
22098;DHT22;11215;51.938;8.464;2023-04-24T07:39:04;14.50;58.80
22098;DHT22;11215;51.938;8.464;2023-04-24T07:41:30;14.40;58.70
22098;DHT22;11215;51.938;8.464;2023-04-24T07:43:56;14.40;58.70
22098;DHT22;11215;51.938;8.464;2023-04-24T07:46:22;14.40;58.80
22098;DHT22;11215;51.938;8.464;2023-04-24T07:48:48;14.50;58.90
22098;DHT22;11215;51.938;8.464;2023-04-24T07:51:15;14.50;58.70
22098;DHT22;11215;51.938;8.464;2023-04-24T07:53:41;14.50;58.60
22098;DHT22;11215;51.938;8.464;2023-04-24T07:56:07;14.50;58.60
22098;DHT22;11215;51.938;8.464;2023-04-24T07:58:33;14.50;58.60
22098;DHT22;11215;51.938;8.464;2023-04-24T08:00:59;14.50;58.70
22098;DHT22;11215;51.938;8.464;2023-04-24T08:03:24;14.50;58.50
22098;DHT22;11215;51.938;8.464;2023-04-24T08:05:50;14.60;58.50
22098;DHT22;11215;51.938;8.464;2023-04-24T08:08:16;14.60;58.40
22098;DHT22;11215;51.938;8.464;2023-04-24T08:10:42;14.60;58.30
22098;DHT22;11215;51.938;8.464;2023-04-24T08:13:08;14.60;58.10
22098;DHT22;11215;51.938;8.464;2023-04-24T08:15:34;14.60;58.10
22098;DHT22;11215;51.938;8.464;2023-04-24T08:17:59;14.60;58.00
22098;DHT22;11215;51.938;8.464;2023-04-24T08:20:25;14.60;58.00
22098;DHT22;11215;51.938;8.464;2023-04-24T08:22:51;14.60;58.10
22098;DHT22;11215;51.938;8.464;2023-04-24T08:25:17;14.60;58.30
22098;DHT22;11215;51.938;8.464;2023-04-24T08:27:43;14.60;58.40
22098;DHT22;11215;51.938;8.464;2023-04-24T08:30:12;14.60;58.20
22098;DHT22;11215;51.938;8.464;2023-04-24T08:32:38;14.60;58.20
22098;DHT22;11215;51.938;8.464;2023-04-24T08:35:04;14.60;58.30
22098;DHT22;11215;51.938;8.464;2023-04-24T08:37:30;14.60;58.20
22098;DHT22;11215;51.938;8.464;2023-04-24T08:39:56;14.60;58.20
22098;DHT22;11215;51.938;8.464;2023-04-24T08:42:22;14.70;59.00
22098;DHT22;11215;51.938;8.464;2023-04-24T08:44:49;14.70;58.40
22098;DHT22;11215;51.938;8.464;2023-04-24T08:47:15;14.70;58.40
22098;DHT22;11215;51.938;8.464;2023-04-24T08:49:42;14.70;58.30
22098;DHT22;11215;51.938;8.464;2023-04-24T08:52:08;14.80;58.20
22098;DHT22;11215;51.938;8.464;2023-04-24T08:54:35;14.80;58.10
22098;DHT22;11215;51.938;8.464;2023-04-24T08:57:02;14.80;58.50
22098;DHT22;11215;51.938;8.464;2023-04-24T08:59:29;14.80;57.80
22098;DHT22;11215;51.938;8.464;2023-04-24T09:01:56;14.80;57.70
22098;DHT22;11215;51.938;8.464;2023-04-24T09:04:22;14.80;57.70
22098;DHT22;11215;51.938;8.464;2023-04-24T09:06:50;14.80;57.60
22098;DHT22;11215;51.938;8.464;2023-04-24T09:09:17;14.80;57.60
22098;DHT22;11215;51.938;8.464;2023-04-24T09:11:43;14.70;57.60
22098;DHT22;11215;51.938;8.464;2023-04-24T09:14:10;14.70;57.70
22098;DHT22;11215;51.938;8.464;2023-04-24T09:16:36;14.70;57.70
22098;DHT22;11215;51.938;8.464;2023-04-24T09:19:02;14.70;57.80
22098;DHT22;11215;51.938;8.464;2023-04-24T09:21:33;14.70;57.70
22098;DHT22;11215;51.938;8.464;2023-04-24T09:24:00;14.70;57.60
22098;DHT22;11215;51.938;8.464;2023-04-24T09:26:32;14.70;57.50
22098;DHT22;11215;51.938;8.464;2023-04-24T09:29:01;14.70;57.50
22098;DHT22;11215;51.938;8.464;2023-04-24T09:31:28;14.70;57.70
22098;DHT22;11215;51.938;8.464;2023-04-24T09:33:55;14.70;57.90
22098;DHT22;11215;51.938;8.464;2023-04-24T09:39:04;14.70;57.80
22098;DHT22;11215;51.938;8.464;2023-04-24T09:41:31;14.70;57.80
22098;DHT22;11215;51.938;8.464;2023-04-24T09:43:57;14.80;57.70
22098;DHT22;11215;51.938;8.464;2023-04-24T09:46:31;14.80;57.60
22098;DHT22;11215;51.938;8.464;2023-04-24T09:49:08;14.80;57.70
22098;DHT22;11215;51.938;8.464;2023-04-24T09:51:36;14.80;57.50
22098;DHT22;11215;51.938;8.464;2023-04-24T09:54:03;14.80;57.50
22098;DHT22;11215;51.938;8.464;2023-04-24T09:56:32;14.80;57.40
22098;DHT22;11215;51.938;8.464;2023-04-24T09:59:07;14.80;57.30
22098;DHT22;11215;51.938;8.464;2023-04-24T10:01:34;14.80;57.10
22098;DHT22;11215;51.938;8.464;2023-04-24T10:04:00;14.80;57.00
22098;DHT22;11215;51.938;8.464;2023-04-24T10:06:35;14.70;57.00
22098;DHT22;11215;51.938;8.464;2023-04-24T10:09:02;14.70;57.60
22098;DHT22;11215;51.938;8.464;2023-04-24T10:11:29;14.70;57.20
22098;DHT22;11215;51.938;8.464;2023-04-24T10:13:56;14.60;57.30
22098;DHT22;11215;51.938;8.464;2023-04-24T10:16:24;14.60;57.50
22098;DHT22;11215;51.938;8.464;2023-04-24T10:18:52;14.60;57.60
22098;DHT22;11215;51.938;8.464;2023-04-24T10:21:18;14.60;57.80
22098;DHT22;11215;51.938;8.464;2023-04-24T10:23:43;14.60;58.00
22098;DHT22;11215;51.938;8.464;2023-04-24T10:26:16;14.50;57.90
22098;DHT22;11215;51.938;8.464;2023-04-24T10:28:47;14.50;58.10
22098;DHT22;11215;51.938;8.464;2023-04-24T10:31:14;14.50;58.10
22098;DHT22;11215;51.938;8.464;2023-04-24T10:33:41;14.50;58.00
22098;DHT22;11215;51.938;8.464;2023-04-24T10:36:09;14.50;58.10
22098;DHT22;11215;51.938;8.464;2023-04-24T10:38:37;14.50;58.40
22098;DHT22;11215;51.938;8.464;2023-04-24T10:41:08;14.50;58.30
22098;DHT22;11215;51.938;8.464;2023-04-24T10:43:35;14.40;58.10
22098;DHT22;11215;51.938;8.464;2023-04-24T10:46:05;14.40;58.00
22098;DHT22;11215;51.938;8.464;2023-04-24T10:48:32;14.40;58.00
22098;DHT22;11215;51.938;8.464;2023-04-24T10:50:58;14.30;58.10
22098;DHT22;11215;51.938;8.464;2023-04-24T10:53:28;14.30;58.30
22098;DHT22;11215;51.938;8.464;2023-04-24T10:56:06;14.20;58.80
22098;DHT22;11215;51.938;8.464;2023-04-24T11:01:04;14.20;59.00
22098;DHT22;11215;51.938;8.464;2023-04-24T11:03:33;14.20;59.20
22098;DHT22;11215;51.938;8.464;2023-04-24T11:06:07;14.20;59.30
22098;DHT22;11215;51.938;8.464;2023-04-24T11:08:51;14.10;59.80
22098;DHT22;11215;51.938;8.464;2023-04-24T11:11:18;14.10;59.90
22098;DHT22;11215;51.938;8.464;2023-04-24T11:16:27;14.00;60.30
22098;DHT22;11215;51.938;8.464;2023-04-24T11:19:09;14.10;60.60
22098;DHT22;11215;51.938;8.464;2023-04-24T11:21:44;14.00;61.50
22098;DHT22;11215;51.938;8.464;2023-04-24T11:29:59;14.10;60.70
22098;DHT22;11215;51.938;8.464;2023-04-24T11:32:40;14.00;61.60
22098;DHT22;11215;51.938;8.464;2023-04-24T11:37:46;14.00;61.10
22098;DHT22;11215;51.938;8.464;2023-04-24T11:40:14;14.00;60.60
22098;DHT22;11215;51.938;8.464;2023-04-24T11:42:47;13.90;60.80
22098;DHT22;11215;51.938;8.464;2023-04-24T11:45:14;13.90;61.40
22098;DHT22;11215;51.938;8.464;2023-04-24T11:47:40;13.90;61.30
22098;DHT22;11215;51.938;8.464;2023-04-24T11:50:12;13.80;61.50
22098;DHT22;11215;51.938;8.464;2023-04-24T11:52:40;13.80;62.00
22098;DHT22;11215;51.938;8.464;2023-04-24T11:55:23;13.70;61.70
22098;DHT22;11215;51.938;8.464;2023-04-24T11:57:54;13.60;62.70
22098;DHT22;11215;51.938;8.464;2023-04-24T12:00:32;13.60;62.00
22098;DHT22;11215;51.938;8.464;2023-04-24T12:03:10;13.60;63.00
22098;DHT22;11215;51.938;8.464;2023-04-24T12:05:37;13.60;63.50
22098;DHT22;11215;51.938;8.464;2023-04-24T12:08:03;13.50;62.50
22098;DHT22;11215;51.938;8.464;2023-04-24T12:10:31;13.50;62.10
22098;DHT22;11215;51.938;8.464;2023-04-24T12:12:57;13.40;61.90
22098;DHT22;11215;51.938;8.464;2023-04-24T12:15:24;13.30;61.90
22098;DHT22;11215;51.938;8.464;2023-04-24T12:17:54;13.30;62.10
22098;DHT22;11215;51.938;8.464;2023-04-24T12:20:26;13.20;62.60
22098;DHT22;11215;51.938;8.464;2023-04-24T12:22:54;13.10;62.80
22098;DHT22;11215;51.938;8.464;2023-04-24T12:25:28;13.10;63.20
22098;DHT22;11215;51.938;8.464;2023-04-24T12:30:30;13.00;63.40
22098;DHT22;11215;51.938;8.464;2023-04-24T12:33:00;13.00;63.20
22098;DHT22;11215;51.938;8.464;2023-04-24T12:35:28;13.00;63.80
22098;DHT22;11215;51.938;8.464;2023-04-24T12:37:54;13.00;63.60
22098;DHT22;11215;51.938;8.464;2023-04-24T12:40:21;13.00;63.60
22098;DHT22;11215;51.938;8.464;2023-04-24T12:42:49;12.90;63.70
22098;DHT22;11215;51.938;8.464;2023-04-24T12:45:15;12.90;63.80
22098;DHT22;11215;51.938;8.464;2023-04-24T12:47:42;12.90;63.80
22098;DHT22;11215;51.938;8.464;2023-04-24T12:50:10;12.80;64.10
22098;DHT22;11215;51.938;8.464;2023-04-24T12:52:36;12.90;64.70
22098;DHT22;11215;51.938;8.464;2023-04-24T12:55:02;12.90;64.70
22098;DHT22;11215;51.938;8.464;2023-04-24T12:57:30;12.90;64.90
22098;DHT22;11215;51.938;8.464;2023-04-24T12:59:57;12.90;65.10
22098;DHT22;11215;51.938;8.464;2023-04-24T13:02:24;12.90;65.30
22098;DHT22;11215;51.938;8.464;2023-04-24T13:04:51;12.90;65.50
22098;DHT22;11215;51.938;8.464;2023-04-24T13:07:17;12.90;65.20
22098;DHT22;11215;51.938;8.464;2023-04-24T13:09:44;12.90;65.00
22098;DHT22;11215;51.938;8.464;2023-04-24T13:12:11;12.90;64.90
22098;DHT22;11215;51.938;8.464;2023-04-24T13:14:37;12.90;65.00
22098;DHT22;11215;51.938;8.464;2023-04-24T13:17:03;12.90;65.20
22098;DHT22;11215;51.938;8.464;2023-04-24T13:19:34;12.90;65.40
22098;DHT22;11215;51.938;8.464;2023-04-24T13:22:00;12.90;65.50
22098;DHT22;11215;51.938;8.464;2023-04-24T13:24:26;12.90;65.30
22098;DHT22;11215;51.938;8.464;2023-04-24T13:26:55;12.80;65.30
22098;DHT22;11215;51.938;8.464;2023-04-24T13:29:22;12.80;65.60
22098;DHT22;11215;51.938;8.464;2023-04-24T13:31:50;12.80;65.60
22098;DHT22;11215;51.938;8.464;2023-04-24T13:34:16;12.80;65.80
22098;DHT22;11215;51.938;8.464;2023-04-24T13:36:42;12.80;65.60
22098;DHT22;11215;51.938;8.464;2023-04-24T13:39:07;12.80;65.80
22098;DHT22;11215;51.938;8.464;2023-04-24T13:41:33;12.80;65.90
22098;DHT22;11215;51.938;8.464;2023-04-24T13:43:59;12.80;66.30
22098;DHT22;11215;51.938;8.464;2023-04-24T13:46:25;12.80;67.60
22098;DHT22;11215;51.938;8.464;2023-04-24T13:48:51;12.80;66.80
22098;DHT22;11215;51.938;8.464;2023-04-24T13:51:16;12.90;66.70
22098;DHT22;11215;51.938;8.464;2023-04-24T13:53:42;12.80;66.70
22098;DHT22;11215;51.938;8.464;2023-04-24T13:56:08;12.90;66.40
22098;DHT22;11215;51.938;8.464;2023-04-24T13:58:34;12.90;66.40
22098;DHT22;11215;51.938;8.464;2023-04-24T14:01:02;12.90;66.20
22098;DHT22;11215;51.938;8.464;2023-04-24T14:03:28;12.90;66.20
22098;DHT22;11215;51.938;8.464;2023-04-24T14:05:54;12.90;66.20
22098;DHT22;11215;51.938;8.464;2023-04-24T14:08:20;12.90;66.10
22098;DHT22;11215;51.938;8.464;2023-04-24T14:10:46;12.90;66.20
22098;DHT22;11215;51.938;8.464;2023-04-24T14:13:12;12.90;66.30
22098;DHT22;11215;51.938;8.464;2023-04-24T14:15:37;12.90;66.40
22098;DHT22;11215;51.938;8.464;2023-04-24T14:18:03;12.90;66.20
22098;DHT22;11215;51.938;8.464;2023-04-24T14:20:29;12.90;66.40
22098;DHT22;11215;51.938;8.464;2023-04-24T14:22:55;12.90;66.20
22098;DHT22;11215;51.938;8.464;2023-04-24T14:25:23;12.80;66.10
22098;DHT22;11215;51.938;8.464;2023-04-24T14:27:49;12.90;66.00
22098;DHT22;11215;51.938;8.464;2023-04-24T14:30:15;12.80;66.00
22098;DHT22;11215;51.938;8.464;2023-04-24T14:32:41;12.80;66.10
22098;DHT22;11215;51.938;8.464;2023-04-24T14:35:07;12.80;66.10
22098;DHT22;11215;51.938;8.464;2023-04-24T14:37:33;12.80;66.40
22098;DHT22;11215;51.938;8.464;2023-04-24T14:39:59;12.80;66.40
22098;DHT22;11215;51.938;8.464;2023-04-24T14:42:24;12.80;66.50
22098;DHT22;11215;51.938;8.464;2023-04-24T14:44:50;12.80;66.40
22098;DHT22;11215;51.938;8.464;2023-04-24T14:47:16;12.90;66.40
22098;DHT22;11215;51.938;8.464;2023-04-24T14:49:49;12.90;66.40
22098;DHT22;11215;51.938;8.464;2023-04-24T14:52:15;12.80;66.20
22098;DHT22;11215;51.938;8.464;2023-04-24T14:54:42;12.90;66.30
22098;DHT22;11215;51.938;8.464;2023-04-24T14:57:08;12.90;65.80
22098;DHT22;11215;51.938;8.464;2023-04-24T14:59:33;12.90;65.70
22098;DHT22;11215;51.938;8.464;2023-04-24T15:02:00;12.90;65.60
22098;DHT22;11215;51.938;8.464;2023-04-24T15:04:26;12.90;65.60
22098;DHT22;11215;51.938;8.464;2023-04-24T15:06:52;12.90;65.50
22098;DHT22;11215;51.938;8.464;2023-04-24T15:09:21;12.90;65.40
22098;DHT22;11215;51.938;8.464;2023-04-24T15:11:48;12.80;65.30
22098;DHT22;11215;51.938;8.464;2023-04-24T15:14:15;12.90;65.20
22098;DHT22;11215;51.938;8.464;2023-04-24T15:16:41;12.80;65.20
22098;DHT22;11215;51.938;8.464;2023-04-24T15:19:07;12.80;65.30
22098;DHT22;11215;51.938;8.464;2023-04-24T15:21:33;12.80;65.30
22098;DHT22;11215;51.938;8.464;2023-04-24T15:23:59;12.90;65.10
22098;DHT22;11215;51.938;8.464;2023-04-24T15:26:24;12.90;65.20
22098;DHT22;11215;51.938;8.464;2023-04-24T15:28:51;12.90;65.10
22098;DHT22;11215;51.938;8.464;2023-04-24T15:31:17;12.90;64.90
22098;DHT22;11215;51.938;8.464;2023-04-24T15:33:43;12.90;65.60
22098;DHT22;11215;51.938;8.464;2023-04-24T15:36:09;12.90;64.60
22098;DHT22;11215;51.938;8.464;2023-04-24T15:38:35;12.90;64.60
22098;DHT22;11215;51.938;8.464;2023-04-24T15:41:01;12.90;64.50
22098;DHT22;11215;51.938;8.464;2023-04-24T15:43:27;12.90;64.40
22098;DHT22;11215;51.938;8.464;2023-04-24T15:45:55;12.90;64.40
22098;DHT22;11215;51.938;8.464;2023-04-24T15:48:21;12.90;64.20